createdAt,value
2023-01-30T00:02:06.081Z,100868.91
2023-01-30T00:04:34.578Z,100867.50
2023-01-30T00:07:03.157Z,100881.72
2023-01-30T00:09:31.771Z,100872.78
2023-01-30T00:12:00.164Z,100868.41
2023-01-30T00:14:28.774Z,100885.31
2023-01-30T00:16:57.253Z,100910.50
2023-01-30T00:19:25.951Z,100897.84
2023-01-30T00:21:54.149Z,100860.88
2023-01-30T00:24:22.715Z,100849.31
2023-01-30T00:26:51.491Z,100851.09
2023-01-30T00:29:19.910Z,100883.66
2023-01-30T00:31:48.677Z,100862.91
2023-01-30T00:34:18.434Z,100873.84
2023-01-30T00:36:53.278Z,100847.47
2023-01-30T00:39:28.068Z,100909.81
2023-01-30T00:42:15.275Z,100913.66
2023-01-30T00:45:02.290Z,100888.72
2023-01-30T00:47:31.007Z,100876.97
2023-01-30T00:49:59.443Z,100885.44
2023-01-30T00:52:28.218Z,100917.00
2023-01-30T00:54:56.813Z,100901.47
2023-01-30T00:57:25.399Z,100901.38
2023-01-30T00:59:54.239Z,100891.47
2023-01-30T01:02:22.790Z,100877.81
2023-01-30T01:04:51.508Z,100908.63
2023-01-30T01:07:21.291Z,100907.31
2023-01-30T01:09:50.300Z,100910.34
2023-01-30T01:12:20.058Z,100898.75
2023-01-30T01:14:48.663Z,100825.88
2023-01-30T01:17:17.373Z,100875.13
2023-01-30T01:19:46.080Z,100919.63
2023-01-30T01:22:14.742Z,100874.28
2023-01-30T01:24:43.259Z,100907.50
2023-01-30T01:27:11.906Z,100877.78
2023-01-30T01:29:40.612Z,100888.22
2023-01-30T01:32:09.201Z,100906.72
2023-01-30T01:34:37.850Z,100829.19
2023-01-30T01:37:07.125Z,100915.63
2023-01-30T01:39:55.600Z,100812.06
2023-01-30T01:42:27.490Z,100939.38
2023-01-30T01:45:17.512Z,100953.84
2023-01-30T01:48:06.532Z,100948.38
2023-01-30T01:50:44.813Z,100912.88
2023-01-30T01:53:17.113Z,100938.22
2023-01-30T01:55:50.563Z,100899.03
2023-01-30T01:58:48.961Z,100914.53
2023-01-30T02:01:19.939Z,100929.06
2023-01-30T02:04:00.189Z,100957.16
2023-01-30T02:06:30.331Z,100907.44
2023-01-30T02:09:06.418Z,100877.78
2023-01-30T02:11:34.983Z,100967.72
2023-01-30T02:14:07.703Z,100901.81
2023-01-30T02:16:37.943Z,100891.63
2023-01-30T02:19:26.552Z,100952.03
2023-01-30T02:22:16.857Z,100953.09
2023-01-30T02:25:32.310Z,100966.41
2023-01-30T02:28:19.233Z,100963.53
2023-01-30T02:31:07.999Z,100969.44
2023-01-30T02:34:13.911Z,100965.72
2023-01-30T02:37:00.546Z,100976.63
2023-01-30T02:40:06.214Z,100980.72
2023-01-30T02:43:00.012Z,100993.13
2023-01-30T02:45:55.264Z,100970.06
2023-01-30T02:48:37.138Z,100990.94
2023-01-30T02:51:19.071Z,100998.47
2023-01-30T02:53:50.359Z,100941.13
2023-01-30T02:56:19.845Z,100983.13
2023-01-30T02:58:57.909Z,101005.56
2023-01-30T03:02:08.477Z,100882.59
2023-01-30T03:04:50.081Z,101007.31
2023-01-30T03:07:26.341Z,101003.41
2023-01-30T03:10:09.021Z,100991.28
2023-01-30T03:12:51.779Z,100983.19
2023-01-30T03:15:42.319Z,101026.72
2023-01-30T03:18:11.679Z,101000.88
2023-01-30T03:20:42.180Z,100985.81
2023-01-30T03:23:13.595Z,101010.88
2023-01-30T03:25:44.872Z,100960.84
2023-01-30T03:28:17.790Z,101014.34
2023-01-30T03:30:50.385Z,101039.13
2023-01-30T03:33:18.976Z,101020.59
2023-01-30T03:35:52.145Z,101009.34
2023-01-30T03:38:26.498Z,101002.44
2023-01-30T03:40:55.388Z,101013.56
2023-01-30T03:43:23.927Z,100992.63
2023-01-30T03:45:52.679Z,100991.16
2023-01-30T03:48:21.708Z,100995.53
2023-01-30T03:50:50.270Z,100993.91
2023-01-30T03:53:18.937Z,100921.28
2023-01-30T03:55:47.515Z,101041.31
2023-01-30T03:58:18.251Z,101036.53
2023-01-30T04:00:47.834Z,101014.16
2023-01-30T04:03:16.579Z,101003.56
2023-01-30T04:05:45.080Z,101035.16
2023-01-30T04:08:14.259Z,101020.91
2023-01-30T04:10:43.002Z,100912.13
2023-01-30T04:13:12.584Z,100991.84
2023-01-30T04:15:41.284Z,100942.69
2023-01-30T04:18:39.447Z,100972.03
2023-01-30T04:21:15.303Z,101014.41
2023-01-30T04:23:44.321Z,101029.13
2023-01-30T04:26:14.698Z,100901.97
2023-01-30T04:28:45.245Z,101030.88
2023-01-30T04:31:14.879Z,100946.06
2023-01-30T04:33:58.715Z,101029.19
2023-01-30T04:36:29.593Z,101019.03
2023-01-30T04:38:58.972Z,100972.88
2023-01-30T04:41:30.564Z,100997.94
2023-01-30T04:44:02.012Z,101010.16
2023-01-30T04:46:39.951Z,101025.81
2023-01-30T04:49:10.021Z,101007.25
2023-01-30T04:51:39.030Z,101030.38
2023-01-30T04:54:08.231Z,101032.16
2023-01-30T04:56:36.808Z,101043.25
2023-01-30T04:59:06.708Z,101050.63
2023-01-30T05:01:40.718Z,101026.06
2023-01-30T05:04:09.704Z,101014.97
2023-01-30T05:06:38.637Z,101070.69
2023-01-30T05:09:07.923Z,101045.84
2023-01-30T05:11:37.257Z,101067.91
2023-01-30T05:14:05.900Z,101019.88
2023-01-30T05:16:34.526Z,100973.28
2023-01-30T05:19:03.076Z,101048.75
2023-01-30T05:21:31.533Z,101054.50
2023-01-30T05:24:00.282Z,101035.97
2023-01-30T05:26:29.015Z,100987.63
2023-01-30T05:28:58.801Z,101076.03
2023-01-30T05:31:27.546Z,101033.13
2023-01-30T05:33:56.143Z,101058.19
2023-01-30T05:36:25.523Z,100989.94
2023-01-30T05:38:54.480Z,101058.81
2023-01-30T05:41:23.440Z,101040.81
2023-01-30T05:43:52.329Z,101038.91
2023-01-30T05:46:21.441Z,101064.91
2023-01-30T05:48:50.261Z,101059.78
2023-01-30T05:51:22.142Z,101052.38
2023-01-30T05:53:51.537Z,101081.78
2023-01-30T05:56:21.225Z,101048.75
2023-01-30T05:58:55.947Z,101046.28
2023-01-30T06:01:25.068Z,101076.66
2023-01-30T06:03:54.351Z,101082.69
2023-01-30T06:06:24.284Z,101055.44
2023-01-30T06:08:57.063Z,101076.72
2023-01-30T06:11:26.614Z,101063.94
2023-01-30T06:13:55.363Z,101049.66
2023-01-30T06:16:24.229Z,101036.06
2023-01-30T06:18:53.203Z,101087.34
2023-01-30T06:21:21.842Z,101021.22
2023-01-30T06:23:50.644Z,101059.84
2023-01-30T06:26:19.322Z,100968.22
2023-01-30T06:28:48.925Z,101066.41
2023-01-30T06:31:19.401Z,101036.84
2023-01-30T06:33:50.142Z,101058.78
2023-01-30T06:36:18.744Z,101096.53
2023-01-30T06:38:47.451Z,101065.31
2023-01-30T06:41:16.105Z,101032.41
2023-01-30T06:43:44.880Z,101086.31
2023-01-30T06:46:13.588Z,101038.31
2023-01-30T06:48:42.184Z,101059.47
2023-01-30T06:51:13.941Z,101060.75
2023-01-30T06:53:42.563Z,101070.41
2023-01-30T06:56:11.341Z,101044.13
2023-01-30T06:58:40.074Z,101066.34
2023-01-30T07:01:09.072Z,101058.88
2023-01-30T07:03:37.679Z,101020.69
2023-01-30T07:06:06.188Z,101036.19
2023-01-30T07:08:36.920Z,101042.41
2023-01-30T07:11:06.228Z,101021.09
2023-01-30T07:13:34.757Z,101050.97
2023-01-30T07:16:03.233Z,101048.50
2023-01-30T07:18:32.080Z,101071.38
2023-01-30T07:21:00.743Z,101040.09
2023-01-30T07:23:29.380Z,101087.88
2023-01-30T07:25:57.703Z,101067.81
2023-01-30T07:28:26.363Z,101098.50
2023-01-30T07:30:54.913Z,101079.13
2023-01-30T07:33:23.607Z,101007.63
2023-01-30T07:35:54.761Z,101071.78
2023-01-30T07:38:23.462Z,101061.03
2023-01-30T07:40:52.060Z,101066.41
2023-01-30T07:43:20.759Z,101035.72
2023-01-30T07:45:49.796Z,101065.22
2023-01-30T07:48:20.367Z,101076.66
2023-01-30T07:50:49.198Z,101054.34
2023-01-30T07:53:19.350Z,101081.44
2023-01-30T07:55:48.075Z,101072.88
2023-01-30T07:58:17.630Z,100992.47
2023-01-30T08:00:46.610Z,101059.28
2023-01-30T08:03:16.879Z,101044.22
2023-01-30T08:05:47.906Z,101083.44
2023-01-30T08:08:17.059Z,101066.56
2023-01-30T08:10:45.651Z,101047.06
2023-01-30T08:13:14.215Z,101059.53
2023-01-30T08:15:42.744Z,101080.06
2023-01-30T08:18:11.335Z,101051.50
2023-01-30T08:20:39.841Z,101038.22
2023-01-30T08:23:08.473Z,101041.84
2023-01-30T08:25:37.346Z,101045.59
2023-01-30T08:28:05.956Z,101059.28
2023-01-30T08:30:34.643Z,101036.06
2023-01-30T08:33:03.626Z,101032.00
2023-01-30T08:35:32.542Z,101049.44
2023-01-30T08:38:01.207Z,100953.41
2023-01-30T08:40:30.135Z,100922.06
2023-01-30T08:42:58.808Z,100892.34
2023-01-30T08:45:27.360Z,101022.56
2023-01-30T08:47:59.948Z,101039.94
2023-01-30T08:50:29.184Z,100956.94
2023-01-30T08:52:57.934Z,101050.50
2023-01-30T08:55:26.671Z,101042.63
2023-01-30T08:57:57.769Z,101026.63
2023-01-30T09:00:26.744Z,101044.66
2023-01-30T09:02:59.468Z,101018.53
2023-01-30T09:05:28.235Z,101020.19
2023-01-30T09:07:57.064Z,101034.97
2023-01-30T09:10:25.796Z,101017.44
2023-01-30T09:12:54.286Z,101049.50
2023-01-30T09:15:22.976Z,101048.56
2023-01-30T09:17:53.405Z,101042.72
2023-01-30T09:20:22.225Z,101011.22
2023-01-30T09:22:50.875Z,101038.59
2023-01-30T09:25:19.380Z,101029.66
2023-01-30T09:27:52.135Z,100999.78
2023-01-30T09:30:21.659Z,101026.72
2023-01-30T09:32:50.410Z,100950.38
2023-01-30T09:35:19.107Z,101015.91
2023-01-30T09:37:49.120Z,101020.09
2023-01-30T09:40:25.720Z,101034.00
2023-01-30T09:43:11.812Z,101064.16
2023-01-30T09:46:05.187Z,101021.97
2023-01-30T09:48:44.724Z,101053.72
2023-01-30T09:51:31.873Z,101064.56
2023-01-30T09:54:04.070Z,101061.50
2023-01-30T09:56:32.652Z,100974.31
2023-01-30T09:59:05.039Z,101061.25
2023-01-30T10:01:57.312Z,101050.31
2023-01-30T10:04:35.540Z,101042.72
2023-01-30T10:07:37.156Z,101066.50
2023-01-30T10:10:12.194Z,101014.97
2023-01-30T10:13:15.256Z,101065.03
2023-01-30T10:16:13.253Z,100966.44
2023-01-30T10:18:58.976Z,101048.91
2023-01-30T10:21:56.691Z,101066.63
2023-01-30T10:24:40.891Z,101055.28
2023-01-30T10:27:16.857Z,101057.31
2023-01-30T10:29:57.747Z,101023.25
2023-01-30T10:32:32.444Z,101046.31
2023-01-30T10:35:09.266Z,101058.25
2023-01-30T10:37:51.207Z,101039.78
2023-01-30T10:40:58.989Z,101077.31
2023-01-30T10:43:39.124Z,100937.13
2023-01-30T10:46:36.581Z,101060.69
2023-01-30T10:49:13.856Z,101077.69
2023-01-30T10:52:13.805Z,101065.75
2023-01-30T10:54:45.359Z,101069.03
2023-01-30T10:57:26.316Z,101074.97
2023-01-30T11:00:06.403Z,101026.63
2023-01-30T11:02:41.116Z,101086.03
2023-01-30T11:05:19.731Z,100975.72
2023-01-30T11:07:49.232Z,101056.25
2023-01-30T11:10:22.845Z,101053.38
2023-01-30T11:13:11.503Z,101054.38
2023-01-30T11:15:41.527Z,101065.69
2023-01-30T11:18:49.731Z,101049.06
2023-01-30T11:21:11.026Z,101057.47
2023-01-30T11:23:44.181Z,101057.34
2023-01-30T11:26:41.518Z,101079.28
2023-01-30T11:29:35.816Z,101083.56
2023-01-30T11:32:07.177Z,100987.16
2023-01-30T11:34:35.977Z,101081.53
2023-01-30T11:37:34.237Z,101046.63
2023-01-30T11:40:22.234Z,101037.81
2023-01-30T11:42:53.323Z,101037.53
2023-01-30T11:45:30.859Z,101058.41
2023-01-30T11:48:04.995Z,100989.25
2023-01-30T11:51:03.075Z,101082.00
2023-01-30T11:53:45.953Z,101046.94
2023-01-30T11:56:24.732Z,101052.25
2023-01-30T11:59:00.994Z,101058.56
2023-01-30T12:01:37.907Z,101075.94
2023-01-30T12:04:12.728Z,101100.81
2023-01-30T12:06:43.502Z,101074.13
2023-01-30T12:09:41.134Z,101046.00
2023-01-30T12:12:46.959Z,101060.97
2023-01-30T12:15:18.295Z,101066.28
2023-01-30T12:18:04.922Z,101039.13
2023-01-30T12:20:48.576Z,101059.38
2023-01-30T12:23:25.847Z,101024.44
2023-01-30T12:26:01.912Z,101070.47
2023-01-30T12:29:13.635Z,101051.25
2023-01-30T12:31:49.412Z,101028.63
2023-01-30T12:34:18.650Z,101011.09
2023-01-30T12:36:53.032Z,101056.66
2023-01-30T12:39:35.618Z,101064.34
2023-01-30T12:42:04.314Z,101051.41
2023-01-30T12:44:42.417Z,101056.53
2023-01-30T12:47:29.057Z,101054.63
2023-01-30T12:50:37.013Z,101033.06
2023-01-30T12:53:42.660Z,101048.66
2023-01-30T12:56:13.832Z,101049.38
2023-01-30T12:58:46.293Z,101038.41
2023-01-30T13:01:35.384Z,100916.59
2023-01-30T13:04:31.813Z,101035.25
2023-01-30T13:07:18.675Z,101025.97
2023-01-30T13:10:12.560Z,101032.81
2023-01-30T13:12:48.396Z,101018.19
2023-01-30T13:15:39.373Z,100975.19
2023-01-30T13:18:18.732Z,101025.16
2023-01-30T13:21:33.569Z,100939.13
2023-01-30T13:24:19.840Z,101018.59
2023-01-30T13:26:51.911Z,101013.00
2023-01-30T13:29:29.982Z,101020.81
2023-01-30T13:32:03.371Z,100993.31
2023-01-30T13:34:36.063Z,100965.19
2023-01-30T13:37:12.395Z,101032.97
2023-01-30T13:39:52.480Z,100991.56
2023-01-30T13:42:32.923Z,100992.50
2023-01-30T13:45:03.657Z,101030.63
2023-01-30T13:47:40.808Z,101034.59
2023-01-30T13:50:28.094Z,101029.25
2023-01-30T13:53:11.857Z,100981.78
2023-01-30T13:55:57.111Z,101001.00
2023-01-30T13:58:44.795Z,100971.16
2023-01-30T14:01:14.862Z,100993.56
2023-01-30T14:03:44.993Z,101007.63
2023-01-30T14:06:37.578Z,101024.97
2023-01-30T14:09:20.231Z,100964.78
2023-01-30T14:11:50.736Z,100992.38
2023-01-30T14:14:31.933Z,101006.09
2023-01-30T14:17:16.314Z,101027.38
2023-01-30T14:20:21.649Z,101037.38
2023-01-30T14:22:54.276Z,101031.00
2023-01-30T14:25:33.613Z,101026.41
2023-01-30T14:28:02.606Z,101018.28
2023-01-30T14:30:48.364Z,101034.94
2023-01-30T14:33:22.162Z,101034.59
2023-01-30T14:36:00.091Z,101035.97
2023-01-30T14:38:36.857Z,101039.44
2023-01-30T14:41:05.145Z,101042.78
2023-01-30T14:43:43.044Z,101046.53
2023-01-30T14:46:21.345Z,101041.13
2023-01-30T14:49:01.673Z,101051.16
2023-01-30T14:51:30.400Z,101039.03
2023-01-30T14:54:14.242Z,100981.00
2023-01-30T14:56:45.588Z,101024.13
2023-01-30T14:59:17.410Z,101018.88
2023-01-30T15:01:58.591Z,101034.72
2023-01-30T15:04:52.702Z,101018.56
2023-01-30T15:07:27.472Z,101019.97
2023-01-30T15:09:58.648Z,100997.06
2023-01-30T15:12:40.511Z,101030.34
2023-01-30T15:15:28.574Z,101003.88
2023-01-30T15:18:18.571Z,100996.91
2023-01-30T15:21:38.012Z,101027.22
2023-01-30T15:24:41.508Z,101019.41
2023-01-30T15:27:35.856Z,100993.53
2023-01-30T15:30:24.752Z,101028.09
2023-01-30T15:33:19.864Z,100999.19
2023-01-30T15:35:51.794Z,100996.06
2023-01-30T15:38:30.726Z,100996.69
2023-01-30T15:41:03.821Z,100993.47
2023-01-30T15:44:11.716Z,100982.94
2023-01-30T15:47:16.645Z,101025.25
2023-01-30T15:50:05.528Z,100999.34
2023-01-30T15:52:45.764Z,100904.69
2023-01-30T15:55:29.473Z,101003.91
2023-01-30T15:58:03.790Z,100982.72
2023-01-30T16:00:37.311Z,101007.91
2023-01-30T16:03:11.143Z,100981.69
2023-01-30T16:05:48.995Z,100978.44
2023-01-30T16:08:24.708Z,100905.47
2023-01-30T16:10:53.865Z,100945.72
2023-01-30T16:13:24.574Z,100987.50
2023-01-30T16:16:02.429Z,101005.66
2023-01-30T16:18:34.154Z,100985.03
2023-01-30T16:21:20.075Z,100941.69
2023-01-30T16:24:05.974Z,101008.50
2023-01-30T16:26:37.321Z,100988.84
2023-01-30T16:29:09.035Z,100964.34
2023-01-30T16:31:42.134Z,100981.34
2023-01-30T16:34:30.813Z,100997.34
2023-01-30T16:37:22.153Z,101023.16
2023-01-30T16:40:15.692Z,101035.44
2023-01-30T16:42:57.895Z,100967.22
2023-01-30T16:45:35.964Z,101002.06
2023-01-30T16:48:26.413Z,101023.41
2023-01-30T16:51:01.028Z,101019.31
2023-01-30T16:53:33.286Z,101010.78
2023-01-30T16:56:10.637Z,100975.44
2023-01-30T16:58:40.179Z,100992.53
2023-01-30T17:01:09.830Z,100992.66
2023-01-30T17:03:42.604Z,100985.94
2023-01-30T17:06:22.199Z,100978.38
2023-01-30T17:08:56.684Z,100993.81
2023-01-30T17:11:39.852Z,100981.25
2023-01-30T17:14:19.335Z,100963.50
2023-01-30T17:17:09.154Z,100985.66
2023-01-30T17:19:38.329Z,100967.53
2023-01-30T17:22:18.422Z,100979.09
2023-01-30T17:24:47.089Z,100868.78
2023-01-30T17:27:17.849Z,100979.63
2023-01-30T17:29:47.860Z,100987.84
2023-01-30T17:32:17.359Z,100975.72
2023-01-30T17:34:46.141Z,100977.84
2023-01-30T17:37:19.161Z,101002.06
2023-01-30T17:39:48.620Z,100977.25
2023-01-30T17:42:22.694Z,100974.72
2023-01-30T17:44:51.626Z,100981.97
2023-01-30T17:47:21.729Z,100970.63
2023-01-30T17:49:50.310Z,100957.94
2023-01-30T17:52:19.666Z,100953.28
2023-01-30T17:54:48.323Z,100916.59
2023-01-30T17:57:17.090Z,100931.78
2023-01-30T17:59:47.528Z,100973.94
2023-01-30T18:02:16.170Z,100970.28
2023-01-30T18:04:44.770Z,100970.09
2023-01-30T18:07:17.172Z,100949.91
2023-01-30T18:09:45.670Z,100959.09
2023-01-30T18:12:14.545Z,100865.81
2023-01-30T18:14:42.922Z,100966.91
2023-01-30T18:17:12.003Z,100954.50
2023-01-30T18:19:40.566Z,100944.41
2023-01-30T18:22:09.282Z,100962.88
2023-01-30T18:24:37.793Z,100928.84
2023-01-30T18:27:11.263Z,100967.94
2023-01-30T18:29:39.946Z,100954.06
2023-01-30T18:32:08.741Z,100928.69
2023-01-30T18:34:38.296Z,100953.22
2023-01-30T18:37:06.946Z,100955.19
2023-01-30T18:39:35.720Z,100949.38
2023-01-30T18:42:08.522Z,100967.50
2023-01-30T18:44:37.202Z,100921.97
2023-01-30T18:47:05.771Z,100978.13
2023-01-30T18:49:34.404Z,100969.41
2023-01-30T18:52:03.095Z,100968.75
2023-01-30T18:54:31.711Z,100891.16
2023-01-30T18:57:00.342Z,101003.84
2023-01-30T18:59:29.182Z,100984.72
2023-01-30T19:01:57.798Z,101009.13
2023-01-30T19:04:26.467Z,100883.91
2023-01-30T19:09:39.566Z,100967.50
2023-01-30T19:12:26.224Z,101001.94
2023-01-30T19:14:54.784Z,100979.38
2023-01-30T19:17:23.505Z,100966.97
2023-01-30T19:19:52.126Z,100978.06
2023-01-30T19:22:21.145Z,101002.06
2023-01-30T19:24:49.747Z,101009.97
2023-01-30T19:27:18.436Z,101003.28
2023-01-30T19:29:47.762Z,100981.09
2023-01-30T19:32:16.409Z,100923.84
2023-01-30T19:34:46.036Z,100987.72
2023-01-30T19:37:14.444Z,101020.22
2023-01-30T19:39:43.234Z,100993.19
2023-01-30T19:42:12.082Z,101003.72
2023-01-30T19:44:41.723Z,101023.84
2023-01-30T19:47:10.526Z,100995.91
2023-01-30T19:49:39.083Z,100984.19
2023-01-30T19:52:07.733Z,100941.34
2023-01-30T19:54:36.224Z,100898.81
2023-01-30T19:57:05.104Z,101010.00
2023-01-30T19:59:35.244Z,101009.22
2023-01-30T20:02:03.868Z,101001.09
2023-01-30T20:04:32.642Z,100975.63
2023-01-30T20:07:01.270Z,100967.88
2023-01-30T20:09:29.984Z,100964.63
2023-01-30T20:11:58.700Z,100971.97
2023-01-30T20:14:27.542Z,100993.66
2023-01-30T20:16:56.294Z,100968.88
2023-01-30T20:19:24.865Z,100949.63
2023-01-30T20:21:55.646Z,100963.59
2023-01-30T20:24:24.300Z,100915.81
2023-01-30T20:26:52.908Z,100946.53
2023-01-30T20:29:21.626Z,100969.25
2023-01-30T20:31:53.192Z,100998.19
2023-01-30T20:34:22.609Z,100977.13
2023-01-30T20:36:51.084Z,100977.72
2023-01-30T20:39:21.483Z,100995.03
2023-01-30T20:41:50.381Z,100899.75
2023-01-30T20:44:18.844Z,100969.34
2023-01-30T20:46:48.180Z,100970.66
2023-01-30T20:49:23.545Z,100997.31
2023-01-30T20:51:54.063Z,100971.94
2023-01-30T20:54:24.519Z,100962.00
2023-01-30T20:56:54.696Z,100922.91
2023-01-30T20:59:25.404Z,100967.22
2023-01-30T21:01:54.975Z,100921.09
2023-01-30T21:04:25.505Z,100973.88
2023-01-30T21:06:54.591Z,100862.56
2023-01-30T21:09:24.644Z,100964.94
2023-01-30T21:11:54.087Z,100979.06
2023-01-30T21:14:24.033Z,100975.28
2023-01-30T21:16:53.782Z,100931.13
2023-01-30T21:19:23.271Z,100961.78
2023-01-30T21:21:55.259Z,100907.91
2023-01-30T21:24:29.468Z,100989.50
2023-01-30T21:26:59.190Z,100976.41
2023-01-30T21:29:29.783Z,100922.16
2023-01-30T21:31:59.263Z,100958.47
2023-01-30T21:34:28.390Z,100986.59
2023-01-30T21:37:15.564Z,100953.91
2023-01-30T21:40:02.602Z,100949.31
2023-01-30T21:42:49.745Z,100856.47
2023-01-30T21:45:21.448Z,100930.97
2023-01-30T21:47:54.906Z,100858.41
2023-01-30T21:50:23.930Z,100883.38
2023-01-30T21:52:52.772Z,100921.84
2023-01-30T21:55:21.493Z,100884.16
2023-01-30T21:57:50.297Z,100962.63
2023-01-30T22:00:19.387Z,100854.72
2023-01-30T22:02:50.850Z,100919.03
2023-01-30T22:05:19.516Z,100913.63
2023-01-30T22:07:48.224Z,100955.38
2023-01-30T22:10:16.948Z,100884.84
2023-01-30T22:12:45.290Z,100929.31
2023-01-30T22:15:14.026Z,100931.34
2023-01-30T22:17:42.485Z,100946.97
2023-01-30T22:20:11.943Z,100930.47
2023-01-30T22:22:40.613Z,100915.94
2023-01-30T22:25:09.926Z,100950.88
2023-01-30T22:27:38.545Z,100852.00
2023-01-30T22:30:07.733Z,100912.47
2023-01-30T22:32:36.240Z,100924.13
2023-01-30T22:35:05.016Z,100938.25
2023-01-30T22:37:33.671Z,100914.53
2023-01-30T22:40:02.171Z,100948.09
2023-01-30T22:42:30.907Z,100958.41
2023-01-30T22:44:59.605Z,100938.34
2023-01-30T22:47:28.228Z,100941.22
2023-01-30T22:49:56.849Z,100986.31
2023-01-30T22:52:25.615Z,100924.06
2023-01-30T22:54:54.233Z,100937.38
2023-01-30T22:57:23.092Z,100974.84
2023-01-30T22:59:52.726Z,100948.31
2023-01-30T23:02:21.245Z,100947.75
2023-01-30T23:04:51.238Z,100959.63
2023-01-30T23:07:22.854Z,100950.59
2023-01-30T23:09:51.649Z,100947.72
2023-01-30T23:12:39.059Z,100917.91
2023-01-30T23:15:08.209Z,100965.94
2023-01-30T23:17:55.470Z,100960.31
2023-01-30T23:20:25.086Z,100915.72
2023-01-30T23:22:55.025Z,100893.22
2023-01-30T23:25:23.545Z,100881.34
2023-01-30T23:27:52.150Z,100945.84
2023-01-30T23:30:20.788Z,100969.28
2023-01-30T23:32:49.387Z,100936.47
2023-01-30T23:35:18.318Z,100924.16
2023-01-30T23:38:05.289Z,100966.09
2023-01-30T23:40:34.009Z,100965.09
2023-01-30T23:43:02.567Z,100926.56
2023-01-30T23:45:31.375Z,100922.94
2023-01-30T23:48:02.892Z,100920.44
2023-01-30T23:50:31.841Z,100928.28
2023-01-30T23:53:00.345Z,100964.13
2023-01-30T23:55:29.130Z,100929.31
2023-01-30T23:58:00.497Z,100940.66
